createdAt,value
2019-03-29T00:01:03.875Z,5.79
2019-03-29T00:03:35.596Z,5.88
2019-03-29T00:06:07.234Z,5.78
2019-03-29T00:08:38.827Z,5.70
2019-03-29T00:11:10.201Z,5.65
2019-03-29T00:13:41.579Z,5.60
2019-03-29T00:16:13.189Z,5.72
2019-03-29T00:18:44.990Z,5.79
2019-03-29T00:21:16.620Z,5.94
2019-03-29T00:23:49.103Z,5.83
2019-03-29T00:26:20.663Z,5.85
2019-03-29T00:28:51.977Z,5.84
2019-03-29T00:31:23.657Z,5.80
2019-03-29T00:33:55.307Z,5.81
2019-03-29T00:36:27.373Z,5.74
2019-03-29T00:38:58.955Z,5.69
2019-03-29T00:41:30.604Z,5.68
2019-03-29T00:44:01.935Z,5.66
2019-03-29T00:46:33.730Z,5.67
2019-03-29T00:49:05.657Z,5.62
2019-03-29T00:51:37.001Z,5.58
2019-03-29T00:54:08.309Z,5.53
2019-03-29T00:56:40.876Z,5.48
2019-03-29T00:59:12.417Z,5.45
2019-03-29T01:01:44.031Z,5.42
2019-03-29T01:04:15.904Z,5.42
2019-03-29T01:06:47.787Z,5.47
2019-03-29T01:09:20.163Z,5.55
2019-03-29T01:11:51.881Z,5.55
2019-03-29T01:14:23.421Z,5.47
2019-03-29T01:16:54.730Z,5.36
2019-03-29T01:19:27.088Z,5.34
2019-03-29T01:21:58.443Z,5.39
2019-03-29T01:24:29.994Z,5.36
2019-03-29T01:27:01.298Z,5.45
2019-03-29T01:29:33.936Z,5.45
2019-03-29T01:32:05.534Z,5.48
2019-03-29T01:34:37.075Z,5.48
2019-03-29T01:37:08.434Z,5.42
2019-03-29T01:39:40.025Z,5.81
2019-03-29T01:42:12.997Z,5.66
2019-03-29T01:44:44.287Z,5.61
2019-03-29T01:47:16.093Z,5.51
2019-03-29T01:49:47.504Z,5.41
2019-03-29T01:52:19.295Z,5.42
2019-03-29T01:54:51.706Z,5.50
2019-03-29T01:57:22.994Z,5.47
2019-03-29T01:59:54.603Z,5.64
2019-03-29T02:02:25.886Z,5.57
2019-03-29T02:04:57.182Z,5.48
2019-03-29T02:07:28.478Z,5.48
2019-03-29T02:10:00.850Z,5.53
2019-03-29T02:12:32.224Z,5.68
2019-03-29T02:15:03.605Z,5.73
2019-03-29T02:17:36.290Z,5.95
2019-03-29T02:20:08.117Z,5.84
2019-03-29T02:22:39.620Z,5.73
2019-03-29T02:25:11.314Z,5.65
2019-03-29T02:27:42.904Z,5.76
2019-03-29T02:30:14.592Z,5.82
2019-03-29T02:32:46.024Z,6.15
2019-03-29T02:35:17.400Z,6.08
2019-03-29T02:37:49.476Z,6.10
2019-03-29T02:40:22.646Z,5.96
2019-03-29T02:42:54.710Z,6.08
2019-03-29T02:45:26.261Z,5.87
2019-03-29T02:47:57.581Z,5.92
2019-03-29T02:50:28.865Z,5.88
2019-03-29T02:53:00.823Z,5.80
2019-03-29T02:55:32.033Z,5.76
2019-03-29T02:58:03.421Z,5.87
2019-03-29T03:00:34.781Z,5.73
2019-03-29T03:03:06.406Z,5.89
2019-03-29T03:05:37.947Z,5.70
2019-03-29T03:08:09.534Z,5.70
2019-03-29T03:10:41.397Z,5.65
2019-03-29T03:13:12.710Z,5.67
2019-03-29T03:15:44.649Z,5.69
2019-03-29T03:18:16.211Z,5.83
2019-03-29T03:20:47.507Z,5.68
2019-03-29T03:23:19.370Z,5.72
2019-03-29T03:25:50.727Z,5.72
2019-03-29T03:28:22.854Z,5.62
2019-03-29T03:30:54.723Z,5.48
2019-03-29T03:33:26.584Z,5.54
2019-03-29T03:35:57.850Z,5.47
2019-03-29T03:38:30.110Z,5.49
2019-03-29T03:41:01.619Z,5.71
2019-03-29T03:43:33.242Z,5.70
2019-03-29T03:46:04.771Z,5.68
2019-03-29T03:48:36.116Z,5.78
2019-03-29T03:51:07.684Z,5.71
2019-03-29T03:53:39.333Z,5.75
2019-03-29T03:56:11.619Z,5.99
2019-03-29T03:58:43.622Z,5.89
2019-03-29T04:01:15.220Z,5.75
2019-03-29T04:03:46.618Z,5.71
2019-03-29T04:06:17.904Z,5.69
2019-03-29T04:08:49.299Z,5.68
2019-03-29T04:11:21.055Z,5.63
2019-03-29T04:13:52.604Z,5.65
2019-03-29T04:16:23.902Z,5.62
2019-03-29T04:18:55.439Z,5.69
2019-03-29T04:21:26.962Z,5.65
2019-03-29T04:23:58.358Z,5.64
2019-03-29T04:26:29.857Z,5.62
2019-03-29T04:29:04.685Z,5.68
2019-03-29T04:31:34.445Z,5.64
2019-03-29T04:34:06.049Z,5.61
2019-03-29T04:36:37.928Z,5.57
2019-03-29T04:39:09.476Z,5.57
2019-03-29T04:41:41.043Z,5.67
2019-03-29T04:44:12.696Z,5.73
2019-03-29T04:46:44.017Z,6.01
2019-03-29T04:49:16.299Z,5.91
2019-03-29T04:51:47.602Z,5.82
2019-03-29T04:54:20.117Z,5.74
2019-03-29T04:56:51.734Z,5.78
2019-03-29T04:59:23.279Z,5.66
2019-03-29T05:01:54.884Z,5.64
2019-03-29T05:04:26.538Z,5.54
2019-03-29T05:06:58.126Z,5.76
2019-03-29T05:09:29.773Z,5.60
2019-03-29T05:12:01.087Z,5.52
2019-03-29T05:14:32.644Z,5.59
2019-03-29T05:17:04.165Z,5.71
2019-03-29T05:19:35.495Z,5.65
2019-03-29T05:22:06.797Z,5.91
2019-03-29T05:24:39.096Z,5.95
2019-03-29T05:27:29.338Z,5.84
2019-03-29T05:30:01.645Z,5.78
2019-03-29T05:32:34.748Z,5.72
2019-03-29T05:35:06.313Z,5.60
2019-03-29T05:37:38.103Z,5.54
2019-03-29T05:40:09.780Z,5.46
2019-03-29T05:42:41.075Z,5.41
2019-03-29T05:45:12.682Z,5.31
2019-03-29T05:47:44.357Z,5.41
2019-03-29T05:50:16.118Z,5.41
2019-03-29T05:52:47.425Z,5.57
2019-03-29T05:55:31.774Z,5.54
2019-03-29T05:57:52.346Z,5.61
2019-03-29T06:00:23.676Z,5.65
2019-03-29T06:02:55.996Z,5.57
2019-03-29T06:05:27.369Z,5.69
2019-03-29T06:07:58.822Z,5.77
2019-03-29T06:10:30.119Z,5.90
2019-03-29T06:13:01.651Z,5.81
2019-03-29T06:15:33.174Z,5.90
2019-03-29T06:18:04.714Z,5.99
2019-03-29T06:20:36.508Z,6.03
2019-03-29T06:23:07.919Z,6.13
2019-03-29T06:25:39.455Z,6.16
2019-03-29T06:28:10.771Z,6.57
2019-03-29T06:30:42.187Z,6.54
2019-03-29T06:33:13.583Z,6.77
2019-03-29T06:35:45.883Z,6.89
2019-03-29T06:38:17.580Z,7.20
2019-03-29T06:41:02.229Z,7.68
2019-03-29T06:43:22.980Z,8.27
2019-03-29T06:45:54.594Z,8.57
2019-03-29T06:48:26.238Z,8.99
2019-03-29T06:50:57.921Z,9.26
2019-03-29T06:53:29.553Z,9.25
2019-03-29T06:56:00.993Z,9.42
2019-03-29T06:58:32.832Z,9.47
2019-03-29T07:01:04.203Z,9.65
2019-03-29T07:03:35.562Z,9.83
2019-03-29T07:06:07.167Z,10.01
2019-03-29T07:08:38.486Z,10.26
2019-03-29T07:11:17.126Z,10.17
2019-03-29T07:13:56.226Z,10.35
2019-03-29T07:16:16.536Z,10.46
2019-03-29T07:18:48.340Z,10.56
2019-03-29T07:21:21.663Z,10.72
2019-03-29T07:23:53.218Z,10.74
2019-03-29T07:26:24.770Z,10.86
2019-03-29T07:28:56.372Z,10.91
2019-03-29T07:31:27.921Z,11.08
2019-03-29T07:33:59.810Z,11.13
2019-03-29T07:36:32.300Z,11.28
2019-03-29T07:39:04.943Z,11.40
2019-03-29T07:41:36.464Z,11.66
2019-03-29T07:44:09.012Z,11.80
2019-03-29T07:46:40.313Z,11.77
2019-03-29T07:49:11.642Z,11.95
2019-03-29T07:51:43.164Z,12.04
2019-03-29T07:54:14.484Z,12.16
2019-03-29T07:56:46.155Z,12.34
2019-03-29T07:59:17.709Z,12.34
2019-03-29T08:01:50.212Z,12.25
2019-03-29T08:04:23.855Z,12.59
2019-03-29T08:06:55.075Z,12.74
2019-03-29T08:09:27.412Z,12.88
2019-03-29T08:11:59.223Z,13.08
2019-03-29T08:14:30.842Z,13.10
2019-03-29T08:17:03.113Z,13.20
2019-03-29T08:19:37.223Z,13.32
2019-03-29T08:22:07.887Z,13.35
2019-03-29T08:24:39.210Z,13.43
2019-03-29T08:27:11.495Z,13.53
2019-03-29T08:29:43.622Z,13.53
2019-03-29T08:32:14.911Z,13.65
2019-03-29T08:34:46.294Z,13.66
2019-03-29T08:37:18.079Z,13.76
2019-03-29T08:39:51.241Z,13.85
2019-03-29T08:42:22.831Z,13.96
2019-03-29T08:44:54.143Z,13.98
2019-03-29T08:47:25.734Z,13.91
2019-03-29T08:49:57.054Z,14.00
2019-03-29T08:52:28.351Z,13.90
2019-03-29T08:54:59.736Z,14.01
2019-03-29T08:57:31.025Z,14.24
2019-03-29T09:00:02.565Z,14.37
2019-03-29T09:02:34.463Z,14.49
2019-03-29T09:05:06.142Z,14.49
2019-03-29T09:07:44.657Z,14.47
2019-03-29T09:10:22.355Z,14.59
2019-03-29T09:12:54.377Z,14.61
2019-03-29T09:15:26.013Z,14.77
2019-03-29T09:17:59.807Z,14.77
2019-03-29T09:20:34.213Z,15.13
2019-03-29T09:23:03.915Z,15.16
2019-03-29T09:25:35.781Z,15.10
2019-03-29T09:28:07.642Z,15.09
2019-03-29T09:30:39.608Z,15.26
2019-03-29T09:33:10.900Z,15.08
2019-03-29T09:35:42.944Z,15.40
2019-03-29T09:38:14.372Z,15.51
2019-03-29T09:40:57.445Z,15.49
2019-03-29T09:43:18.779Z,15.54
2019-03-29T09:45:50.655Z,15.59
2019-03-29T09:48:22.272Z,15.46
2019-03-29T09:50:53.762Z,15.87
2019-03-29T09:53:25.359Z,16.00
2019-03-29T09:55:57.171Z,15.98
2019-03-29T09:58:28.702Z,15.79
2019-03-29T10:01:00.311Z,15.76
2019-03-29T10:03:31.911Z,15.51
2019-03-29T10:06:03.209Z,15.45
2019-03-29T10:08:34.989Z,15.59
2019-03-29T10:11:06.557Z,15.84
2019-03-29T10:13:41.604Z,15.74
2019-03-29T10:16:13.147Z,16.08
2019-03-29T10:18:44.887Z,15.98
2019-03-29T10:21:17.371Z,16.32
2019-03-29T10:23:49.244Z,16.65
2019-03-29T10:26:21.051Z,16.56
2019-03-29T10:28:52.288Z,16.46
2019-03-29T10:31:32.225Z,16.48
2019-03-29T10:33:56.843Z,16.72
2019-03-29T10:36:28.661Z,16.86
2019-03-29T10:39:00.182Z,16.72
2019-03-29T10:41:34.134Z,16.91
2019-03-29T10:44:04.701Z,16.88
2019-03-29T10:46:36.071Z,17.08
2019-03-29T10:49:08.614Z,17.26
2019-03-29T10:51:40.399Z,17.33
2019-03-29T10:54:11.615Z,17.26
2019-03-29T10:56:43.759Z,17.52
2019-03-29T10:59:26.760Z,17.41
2019-03-29T11:01:48.612Z,17.24
2019-03-29T11:04:20.159Z,17.42
2019-03-29T11:06:51.770Z,17.56
2019-03-29T11:09:23.053Z,17.39
2019-03-29T11:11:54.422Z,17.27
2019-03-29T11:14:25.939Z,17.32
2019-03-29T11:16:57.303Z,17.57
2019-03-29T11:19:28.590Z,17.41
2019-03-29T11:22:00.372Z,17.42
2019-03-29T11:24:32.038Z,17.54
2019-03-29T11:27:03.586Z,17.51
2019-03-29T11:29:35.110Z,17.88
2019-03-29T11:32:07.552Z,17.60
2019-03-29T11:34:39.319Z,17.55
2019-03-29T11:37:10.624Z,17.62
2019-03-29T11:39:42.793Z,18.07
2019-03-29T11:42:14.322Z,18.18
2019-03-29T11:44:45.833Z,18.51
2019-03-29T11:47:17.131Z,18.67
2019-03-29T11:49:48.413Z,18.39
2019-03-29T11:52:19.711Z,18.62
2019-03-29T11:54:51.482Z,18.72
2019-03-29T11:57:23.313Z,18.47
2019-03-29T11:59:55.116Z,18.68
2019-03-29T12:02:31.443Z,18.13
2019-03-29T12:04:59.398Z,18.53
2019-03-29T12:07:31.000Z,18.40
2019-03-29T12:10:02.514Z,18.34
2019-03-29T12:12:35.656Z,18.58
2019-03-29T12:15:08.175Z,18.49
2019-03-29T12:17:39.631Z,18.78
2019-03-29T12:20:11.019Z,18.95
2019-03-29T12:22:42.411Z,18.80
2019-03-29T12:25:13.947Z,18.62
2019-03-29T12:27:45.735Z,18.29
2019-03-29T12:30:30.661Z,18.17
2019-03-29T12:32:50.551Z,18.18
2019-03-29T12:35:22.063Z,18.13
2019-03-29T12:37:53.627Z,18.33
2019-03-29T12:40:25.247Z,17.94
2019-03-29T12:42:56.790Z,17.56
2019-03-29T12:45:28.463Z,17.82
2019-03-29T12:47:59.764Z,18.29
2019-03-29T12:50:31.288Z,18.58
2019-03-29T12:53:02.574Z,18.21
2019-03-29T12:55:33.952Z,18.39
2019-03-29T12:58:05.619Z,18.71
2019-03-29T13:00:36.928Z,18.84
2019-03-29T13:03:09.519Z,19.04
2019-03-29T13:05:41.944Z,18.68
2019-03-29T13:08:13.801Z,18.45
2019-03-29T13:10:45.431Z,18.29
2019-03-29T13:13:16.983Z,18.24
2019-03-29T13:15:48.532Z,18.34
2019-03-29T13:18:20.126Z,18.88
2019-03-29T13:20:51.505Z,18.61
2019-03-29T13:23:23.401Z,18.10
2019-03-29T13:25:54.791Z,17.72
2019-03-29T13:28:26.377Z,18.10
2019-03-29T13:30:57.670Z,18.18
2019-03-29T13:33:29.025Z,17.33
2019-03-29T13:36:00.420Z,17.42
2019-03-29T13:38:32.575Z,17.70
2019-03-29T13:41:06.809Z,18.12
2019-03-29T13:43:37.210Z,18.19
2019-03-29T13:46:08.601Z,18.78
2019-03-29T13:48:39.891Z,18.96
2019-03-29T13:51:11.491Z,18.82
2019-03-29T13:53:42.904Z,18.63
2019-03-29T13:56:14.511Z,18.41
2019-03-29T13:58:46.108Z,18.45
2019-03-29T14:01:17.928Z,18.46
2019-03-29T14:03:49.690Z,18.65
2019-03-29T14:06:21.803Z,18.86
2019-03-29T14:08:53.088Z,18.97
2019-03-29T14:11:25.388Z,19.03
2019-03-29T14:13:56.695Z,18.87
2019-03-29T14:16:27.995Z,18.93
2019-03-29T14:18:59.894Z,18.82
2019-03-29T14:21:31.201Z,18.80
2019-03-29T14:24:02.481Z,18.69
2019-03-29T14:26:33.786Z,18.96
2019-03-29T14:29:05.061Z,19.03
2019-03-29T14:31:36.457Z,18.82
2019-03-29T14:34:07.985Z,18.80
2019-03-29T14:36:39.372Z,18.67
2019-03-29T14:39:10.653Z,18.95
2019-03-29T14:41:41.974Z,18.77
2019-03-29T14:44:13.747Z,18.70
2019-03-29T14:46:45.127Z,18.49
2019-03-29T14:49:16.493Z,18.77
2019-03-29T14:51:47.790Z,18.73
2019-03-29T14:54:19.375Z,18.83
2019-03-29T14:56:50.903Z,18.92
2019-03-29T14:59:22.190Z,19.15
2019-03-29T15:01:53.736Z,19.06
2019-03-29T15:04:25.866Z,18.85
2019-03-29T15:06:57.465Z,18.70
2019-03-29T15:09:28.739Z,18.52
2019-03-29T15:12:00.317Z,18.58
2019-03-29T15:14:31.604Z,18.45
2019-03-29T15:17:03.391Z,18.35
2019-03-29T15:19:35.421Z,18.21
2019-03-29T15:22:07.096Z,18.22
2019-03-29T15:24:38.644Z,18.07
2019-03-29T15:27:09.942Z,18.24
2019-03-29T15:29:41.710Z,18.13
2019-03-29T15:32:13.271Z,18.20
2019-03-29T15:34:44.578Z,18.34
2019-03-29T15:37:16.286Z,18.00
2019-03-29T15:39:48.035Z,18.32
2019-03-29T15:42:20.648Z,18.22
2019-03-29T15:44:52.634Z,18.23
2019-03-29T15:47:24.162Z,18.07
2019-03-29T15:49:56.579Z,18.01
2019-03-29T15:52:28.153Z,17.96
2019-03-29T15:54:59.509Z,17.84
2019-03-29T15:57:31.178Z,17.81
2019-03-29T16:00:02.463Z,17.83
2019-03-29T16:02:33.917Z,17.77
2019-03-29T16:05:05.675Z,17.74
2019-03-29T16:07:37.194Z,17.58
2019-03-29T16:10:08.726Z,17.54
2019-03-29T16:12:40.048Z,17.36
2019-03-29T16:15:11.771Z,17.41
2019-03-29T16:17:43.383Z,17.27
2019-03-29T16:20:15.510Z,17.29
2019-03-29T16:22:46.800Z,17.31
2019-03-29T16:25:18.244Z,17.24
2019-03-29T16:27:49.972Z,17.09
2019-03-29T16:30:21.414Z,17.08
2019-03-29T16:32:52.942Z,17.15
2019-03-29T16:35:24.470Z,17.03
2019-03-29T16:37:57.503Z,16.85
2019-03-29T16:40:31.049Z,16.79
2019-03-29T16:43:01.779Z,16.81
2019-03-29T16:45:46.903Z,16.68
2019-03-29T16:48:06.983Z,16.57
2019-03-29T16:50:38.469Z,16.52
2019-03-29T16:53:09.747Z,16.46
2019-03-29T16:55:41.963Z,16.37
2019-03-29T16:58:13.485Z,16.22
2019-03-29T17:00:45.304Z,16.18
2019-03-29T17:03:17.799Z,16.06
2019-03-29T17:05:49.293Z,15.96
2019-03-29T17:08:20.728Z,15.80
2019-03-29T17:10:52.115Z,15.80
2019-03-29T17:13:23.399Z,15.63
2019-03-29T17:16:01.832Z,15.53
2019-03-29T17:18:29.814Z,15.42
2019-03-29T17:21:01.720Z,15.46
2019-03-29T17:23:33.263Z,15.34
2019-03-29T17:26:04.947Z,15.25
2019-03-29T17:28:36.540Z,15.18
2019-03-29T17:31:26.221Z,14.98
2019-03-29T17:33:58.584Z,14.82
2019-03-29T17:36:29.873Z,14.61
2019-03-29T17:39:01.173Z,14.42
2019-03-29T17:41:34.576Z,14.15
2019-03-29T17:44:05.933Z,13.92
2019-03-29T17:46:37.528Z,13.66
2019-03-29T17:49:08.833Z,13.34
2019-03-29T17:51:40.741Z,12.87
2019-03-29T17:54:12.286Z,12.87
2019-03-29T17:56:43.574Z,12.64
2019-03-29T17:59:15.128Z,12.43
2019-03-29T18:01:46.652Z,12.29
2019-03-29T18:04:18.251Z,12.13
2019-03-29T18:06:49.996Z,11.86
2019-03-29T18:09:21.314Z,11.71
2019-03-29T18:11:52.904Z,11.44
2019-03-29T18:14:24.286Z,11.38
2019-03-29T18:16:55.571Z,11.25
2019-03-29T18:19:27.093Z,11.09
2019-03-29T18:21:58.705Z,10.94
2019-03-29T18:24:30.267Z,10.89
2019-03-29T18:27:01.781Z,10.72
2019-03-29T18:29:33.079Z,10.62
2019-03-29T18:32:04.670Z,10.50
2019-03-29T18:34:38.867Z,10.41
2019-03-29T18:37:09.347Z,10.31
2019-03-29T18:39:40.944Z,10.18
2019-03-29T18:42:12.226Z,10.12
2019-03-29T18:44:43.811Z,10.11
2019-03-29T18:47:15.360Z,10.03
2019-03-29T18:49:47.117Z,9.97
2019-03-29T18:52:18.555Z,9.83
2019-03-29T18:54:49.854Z,9.68
2019-03-29T18:57:21.931Z,9.57
2019-03-29T18:59:54.449Z,9.49
2019-03-29T19:02:26.729Z,9.45
2019-03-29T19:04:58.625Z,9.43
2019-03-29T19:07:30.228Z,9.34
2019-03-29T19:10:02.917Z,9.35
2019-03-29T19:12:34.413Z,9.31
2019-03-29T19:15:05.891Z,9.52
2019-03-29T19:17:37.989Z,9.66
2019-03-29T19:20:10.226Z,9.71
2019-03-29T19:22:42.282Z,9.94
2019-03-29T19:25:13.757Z,10.11
2019-03-29T19:27:45.607Z,10.28
2019-03-29T19:30:17.454Z,10.33
2019-03-29T19:32:49.693Z,10.50
2019-03-29T19:35:21.393Z,10.63
2019-03-29T19:37:53.379Z,10.75
2019-03-29T19:40:24.992Z,10.85
2019-03-29T19:42:56.317Z,10.95
2019-03-29T19:45:27.934Z,11.04
2019-03-29T19:47:59.602Z,10.97
2019-03-29T19:50:31.226Z,11.11
2019-03-29T19:53:02.542Z,11.01
2019-03-29T19:55:34.219Z,10.88
2019-03-29T19:58:05.647Z,10.73
2019-03-29T20:00:38.556Z,10.68
2019-03-29T20:03:10.347Z,10.63
2019-03-29T20:05:41.688Z,10.79
2019-03-29T20:08:13.199Z,10.93
2019-03-29T20:10:44.502Z,11.01
2019-03-29T20:13:15.866Z,10.94
2019-03-29T20:15:47.697Z,10.71
2019-03-29T20:18:20.486Z,10.62
2019-03-29T20:20:52.293Z,10.38
2019-03-29T20:23:23.808Z,10.29
2019-03-29T20:25:55.294Z,10.16
2019-03-29T20:28:26.928Z,10.18
2019-03-29T20:30:58.527Z,10.17
2019-03-29T20:33:30.307Z,10.31
2019-03-29T20:36:01.705Z,10.26
2019-03-29T20:38:33.105Z,10.43
2019-03-29T20:41:05.011Z,10.51
2019-03-29T20:43:36.796Z,10.60
2019-03-29T20:46:08.585Z,10.65
2019-03-29T20:48:40.099Z,10.55
2019-03-29T20:51:11.409Z,10.66
2019-03-29T20:53:43.758Z,10.74
2019-03-29T20:56:15.456Z,10.82
2019-03-29T20:58:46.750Z,10.80
2019-03-29T21:01:18.427Z,10.83
2019-03-29T21:03:49.772Z,10.72
2019-03-29T21:06:21.588Z,10.80
2019-03-29T21:08:52.880Z,10.79
2019-03-29T21:11:24.193Z,10.78
2019-03-29T21:13:56.256Z,10.81
2019-03-29T21:16:27.786Z,10.66
2019-03-29T21:18:59.611Z,10.55
2019-03-29T21:21:30.933Z,10.59
2019-03-29T21:24:02.452Z,10.57
2019-03-29T21:26:33.774Z,10.38
2019-03-29T21:29:05.622Z,10.40
2019-03-29T21:31:37.165Z,10.39
2019-03-29T21:34:08.696Z,10.36
2019-03-29T21:36:40.007Z,10.52
2019-03-29T21:39:12.809Z,10.56
2019-03-29T21:41:44.327Z,10.68
2019-03-29T21:44:15.937Z,10.68
2019-03-29T21:46:47.534Z,10.65
2019-03-29T21:49:18.977Z,10.53
2019-03-29T21:51:50.286Z,10.61
2019-03-29T21:54:21.890Z,10.52
2019-03-29T21:56:53.463Z,10.36
2019-03-29T21:59:25.208Z,10.32
2019-03-29T22:01:56.896Z,10.17
2019-03-29T22:04:28.209Z,10.12
2019-03-29T22:06:59.796Z,10.07
2019-03-29T22:09:36.983Z,10.03
2019-03-29T22:12:04.664Z,9.86
2019-03-29T22:14:36.028Z,9.78
2019-03-29T22:17:07.960Z,9.81
2019-03-29T22:19:40.491Z,9.85
2019-03-29T22:22:12.337Z,10.11
2019-03-29T22:24:43.675Z,9.96
2019-03-29T22:27:15.275Z,9.71
2019-03-29T22:29:47.267Z,9.66
2019-03-29T22:32:19.079Z,9.79
2019-03-29T22:34:50.595Z,9.71
2019-03-29T22:37:22.416Z,9.73
2019-03-29T22:39:53.814Z,9.83
2019-03-29T22:42:25.414Z,9.64
2019-03-29T22:44:56.937Z,9.56
2019-03-29T22:47:28.458Z,9.31
2019-03-29T22:50:00.269Z,9.54
2019-03-29T22:52:31.862Z,9.72
2019-03-29T22:55:03.201Z,9.80
2019-03-29T22:57:34.504Z,9.69
2019-03-29T23:00:09.059Z,9.66
2019-03-29T23:02:42.035Z,9.79
2019-03-29T23:05:13.635Z,9.71
2019-03-29T23:07:45.044Z,9.68
2019-03-29T23:10:16.675Z,9.52
2019-03-29T23:12:49.911Z,9.41
2019-03-29T23:15:21.432Z,9.30
2019-03-29T23:17:52.750Z,9.22
2019-03-29T23:20:24.360Z,9.23
2019-03-29T23:22:55.735Z,9.23
2019-03-29T23:25:27.336Z,9.31
2019-03-29T23:27:59.105Z,9.34
2019-03-29T23:30:30.876Z,9.27
2019-03-29T23:33:20.438Z,9.21
2019-03-29T23:35:51.724Z,9.19
2019-03-29T23:38:23.041Z,9.08
2019-03-29T23:40:54.812Z,9.01
2019-03-29T23:43:26.197Z,8.89
2019-03-29T23:45:57.547Z,8.95
2019-03-29T23:48:28.860Z,8.78
2019-03-29T23:51:00.148Z,8.74
2019-03-29T23:53:31.749Z,8.66
2019-03-29T23:56:03.043Z,8.76
2019-03-29T23:58:35.851Z,8.57
